Current | Forecast
Updated: 10:00 AM MSK on March 29, 2017
Observed at Stavropol', Russia
Temperature 43°F
Windchill 34°F
Humidity 70%
Dew Point 34°F
Wind NW at 22 mph
Wind Gust 34 mph
Pressure 30.01 in (Rising)
Conditions Mostly Cloudy
Visibility 6.2 miles
UV 2 out of 16
Clouds Mostly Cloudy (BKN) : 2600 ft
Yesterday's Maximum 50°F
Yesterday's Minimum 34°F approx.
Yesterday's Heating Degree Days 23 approx.
Sunrise5:54 AM MSK
Sunset6:32 PM MSK
Moon Rise6:51 AM MSK
Moon Set8:11 PM MSK
Moon PhaseMoon Phase
New Moon
Raw METARMETAR URMT 290700Z 31010G15MPS 9999 BKN026CB 06/01 Q1016 R25/150060 NOSIG RMK QFE723


Monday
. High: 71° F.
Tuesday
. High: 66° F.
Wednesday
. High: 59° F.
Thursday
. High: 62° F.
Friday
. High: 66° F.
Saturday
. High: 62° F.
Sunday
. High: 59° F.
Monday
. High: 66° F.

Units: English | Metric

Find the Weather for any City, State or Zipcode, or Country:

U.S. State List | Severe Weather | Tropical Storms | Ski Conditions
United States | Canada | Central America | South America | Asia | Europe | Australia | Africa | Islands

Weather Underground

© Copyright 2017
The Weather Company, LLC